sensor_id;sensor_type;location;lat;lon;timestamp;P1;durP1;ratioP1;P2;durP2;ratioP2
12356;SDS011;6243;51.244;6.774;2023-06-19T00:00:06;6.40;;;4.60;;
12356;SDS011;6243;51.244;6.774;2023-06-19T00:02:32;5.07;;;4.57;;
12356;SDS011;6243;51.244;6.774;2023-06-19T00:04:59;5.13;;;4.63;;
12356;SDS011;6243;51.244;6.774;2023-06-19T00:07:24;4.83;;;4.43;;
12356;SDS011;6243;51.244;6.774;2023-06-19T00:09:50;5.07;;;4.67;;
12356;SDS011;6243;51.244;6.774;2023-06-19T00:12:15;5.07;;;4.67;;
12356;SDS011;6243;51.244;6.774;2023-06-19T00:14:41;5.50;;;5.00;;
12356;SDS011;6243;51.244;6.774;2023-06-19T00:17:06;5.20;;;4.70;;
12356;SDS011;6243;51.244;6.774;2023-06-19T00:19:32;5.07;;;4.67;;
12356;SDS011;6243;51.244;6.774;2023-06-19T00:21:59;5.90;;;5.30;;
12356;SDS011;6243;51.244;6.774;2023-06-19T00:24:24;5.40;;;4.90;;
12356;SDS011;6243;51.244;6.774;2023-06-19T00:26:50;5.17;;;4.70;;
12356;SDS011;6243;51.244;6.774;2023-06-19T00:29:15;5.30;;;4.90;;
12356;SDS011;6243;51.244;6.774;2023-06-19T00:31:41;5.40;;;5.00;;
12356;SDS011;6243;51.244;6.774;2023-06-19T00:34:06;5.70;;;5.20;;
12356;SDS011;6243;51.244;6.774;2023-06-19T00:36:32;5.27;;;4.77;;
12356;SDS011;6243;51.244;6.774;2023-06-19T00:38:59;5.50;;;5.00;;
12356;SDS011;6243;51.244;6.774;2023-06-19T00:41:25;6.00;;;5.40;;
12356;SDS011;6243;51.244;6.774;2023-06-19T00:43:52;5.50;;;5.00;;
12356;SDS011;6243;51.244;6.774;2023-06-19T00:46:17;5.63;;;5.23;;
12356;SDS011;6243;51.244;6.774;2023-06-19T00:48:43;5.33;;;4.90;;
12356;SDS011;6243;51.244;6.774;2023-06-19T00:51:08;6.63;;;5.73;;
12356;SDS011;6243;51.244;6.774;2023-06-19T00:53:34;5.80;;;5.30;;
12356;SDS011;6243;51.244;6.774;2023-06-19T00:56:02;5.73;;;4.87;;
12356;SDS011;6243;51.244;6.774;2023-06-19T00:58:28;5.93;;;5.43;;
12356;SDS011;6243;51.244;6.774;2023-06-19T01:00:54;6.17;;;5.67;;
12356;SDS011;6243;51.244;6.774;2023-06-19T01:03:20;8.33;;;6.00;;
12356;SDS011;6243;51.244;6.774;2023-06-19T01:05:45;5.70;;;5.20;;
12356;SDS011;6243;51.244;6.774;2023-06-19T01:08:14;5.57;;;5.10;;
12356;SDS011;6243;51.244;6.774;2023-06-19T01:10:58;5.97;;;5.47;;
12356;SDS011;6243;51.244;6.774;2023-06-19T01:13:29;5.90;;;5.40;;
12356;SDS011;6243;51.244;6.774;2023-06-19T01:15:59;5.93;;;5.43;;
12356;SDS011;6243;51.244;6.774;2023-06-19T01:18:27;6.53;;;5.87;;
12356;SDS011;6243;51.244;6.774;2023-06-19T01:20:55;6.40;;;5.70;;
12356;SDS011;6243;51.244;6.774;2023-06-19T01:23:22;6.33;;;5.43;;
12356;SDS011;6243;51.244;6.774;2023-06-19T01:25:48;5.87;;;5.37;;
12356;SDS011;6243;51.244;6.774;2023-06-19T01:28:13;6.23;;;5.73;;
12356;SDS011;6243;51.244;6.774;2023-06-19T01:30:39;6.10;;;5.50;;
12356;SDS011;6243;51.244;6.774;2023-06-19T01:33:08;6.20;;;5.60;;
12356;SDS011;6243;51.244;6.774;2023-06-19T01:35:37;6.50;;;5.60;;
12356;SDS011;6243;51.244;6.774;2023-06-19T01:38:07;7.03;;;5.80;;
12356;SDS011;6243;51.244;6.774;2023-06-19T01:40:34;6.27;;;5.67;;
12356;SDS011;6243;51.244;6.774;2023-06-19T01:43:02;6.17;;;5.57;;
12356;SDS011;6243;51.244;6.774;2023-06-19T01:45:28;6.23;;;5.73;;
12356;SDS011;6243;51.244;6.774;2023-06-19T01:47:55;6.20;;;5.70;;
12356;SDS011;6243;51.244;6.774;2023-06-19T01:50:20;6.00;;;5.37;;
12356;SDS011;6243;51.244;6.774;2023-06-19T01:52:46;6.70;;;6.10;;
12356;SDS011;6243;51.244;6.774;2023-06-19T01:55:12;6.30;;;5.80;;
12356;SDS011;6243;51.244;6.774;2023-06-19T01:57:39;7.73;;;5.83;;
12356;SDS011;6243;51.244;6.774;2023-06-19T02:00:05;6.80;;;6.20;;
12356;SDS011;6243;51.244;6.774;2023-06-19T02:02:31;6.67;;;6.07;;
12356;SDS011;6243;51.244;6.774;2023-06-19T02:04:57;6.77;;;6.07;;
12356;SDS011;6243;51.244;6.774;2023-06-19T02:07:22;6.10;;;5.63;;
12356;SDS011;6243;51.244;6.774;2023-06-19T02:09:48;6.03;;;5.53;;
12356;SDS011;6243;51.244;6.774;2023-06-19T02:12:13;6.03;;;5.53;;
12356;SDS011;6243;51.244;6.774;2023-06-19T02:14:40;5.90;;;5.30;;
12356;SDS011;6243;51.244;6.774;2023-06-19T02:17:06;6.27;;;5.77;;
12356;SDS011;6243;51.244;6.774;2023-06-19T02:19:31;6.60;;;6.00;;
12356;SDS011;6243;51.244;6.774;2023-06-19T02:21:57;6.57;;;5.93;;
12356;SDS011;6243;51.244;6.774;2023-06-19T02:24:22;6.80;;;6.20;;
12356;SDS011;6243;51.244;6.774;2023-06-19T02:26:48;6.50;;;5.90;;
12356;SDS011;6243;51.244;6.774;2023-06-19T02:29:13;8.63;;;6.47;;
12356;SDS011;6243;51.244;6.774;2023-06-19T02:31:40;6.00;;;5.37;;
12356;SDS011;6243;51.244;6.774;2023-06-19T02:34:05;6.73;;;5.63;;
12356;SDS011;6243;51.244;6.774;2023-06-19T02:36:31;5.30;;;4.83;;
12356;SDS011;6243;51.244;6.774;2023-06-19T02:38:56;6.73;;;4.97;;
12356;SDS011;6243;51.244;6.774;2023-06-19T02:41:22;5.20;;;4.70;;
12356;SDS011;6243;51.244;6.774;2023-06-19T02:43:47;5.43;;;4.87;;
12356;SDS011;6243;51.244;6.774;2023-06-19T02:46:13;5.53;;;4.27;;
12356;SDS011;6243;51.244;6.774;2023-06-19T02:48:40;4.50;;;4.17;;
12356;SDS011;6243;51.244;6.774;2023-06-19T02:51:05;4.73;;;4.30;;
12356;SDS011;6243;51.244;6.774;2023-06-19T02:53:31;4.70;;;4.07;;
12356;SDS011;6243;51.244;6.774;2023-06-19T02:55:56;4.23;;;3.93;;
12356;SDS011;6243;51.244;6.774;2023-06-19T02:58:22;4.23;;;3.83;;
12356;SDS011;6243;51.244;6.774;2023-06-19T03:00:47;3.90;;;3.60;;
12356;SDS011;6243;51.244;6.774;2023-06-19T03:03:13;3.63;;;3.33;;
12356;SDS011;6243;51.244;6.774;2023-06-19T03:05:40;3.90;;;3.60;;
12356;SDS011;6243;51.244;6.774;2023-06-19T03:08:05;3.93;;;3.60;;
12356;SDS011;6243;51.244;6.774;2023-06-19T03:10:31;3.63;;;3.33;;
12356;SDS011;6243;51.244;6.774;2023-06-19T03:12:56;4.03;;;3.37;;
12356;SDS011;6243;51.244;6.774;2023-06-19T03:15:22;3.97;;;3.57;;
12356;SDS011;6243;51.244;6.774;2023-06-19T03:17:47;4.33;;;3.37;;
12356;SDS011;6243;51.244;6.774;2023-06-19T03:20:13;3.40;;;3.10;;
12356;SDS011;6243;51.244;6.774;2023-06-19T03:22:40;3.83;;;3.30;;
12356;SDS011;6243;51.244;6.774;2023-06-19T03:25:06;3.63;;;3.33;;
12356;SDS011;6243;51.244;6.774;2023-06-19T03:27:32;5.13;;;3.13;;
12356;SDS011;6243;51.244;6.774;2023-06-19T03:29:58;3.37;;;3.07;;
12356;SDS011;6243;51.244;6.774;2023-06-19T03:32:23;3.60;;;3.30;;
12356;SDS011;6243;51.244;6.774;2023-06-19T03:34:49;3.63;;;3.33;;
12356;SDS011;6243;51.244;6.774;2023-06-19T03:37:14;3.40;;;3.10;;
12356;SDS011;6243;51.244;6.774;2023-06-19T03:39:41;3.93;;;3.50;;
12356;SDS011;6243;51.244;6.774;2023-06-19T03:42:07;3.53;;;3.23;;
12356;SDS011;6243;51.244;6.774;2023-06-19T03:44:33;3.93;;;3.50;;
12356;SDS011;6243;51.244;6.774;2023-06-19T03:46:58;3.23;;;3.03;;
12356;SDS011;6243;51.244;6.774;2023-06-19T03:49:24;3.20;;;2.90;;
12356;SDS011;6243;51.244;6.774;2023-06-19T03:51:50;3.50;;;3.20;;
12356;SDS011;6243;51.244;6.774;2023-06-19T03:54:15;3.77;;;3.20;;
12356;SDS011;6243;51.244;6.774;2023-06-19T03:56:42;2.90;;;2.60;;
12356;SDS011;6243;51.244;6.774;2023-06-19T03:59:07;3.30;;;2.80;;
12356;SDS011;6243;51.244;6.774;2023-06-19T04:01:33;4.10;;;3.20;;
12356;SDS011;6243;51.244;6.774;2023-06-19T04:03:58;2.77;;;2.57;;
12356;SDS011;6243;51.244;6.774;2023-06-19T04:06:24;2.77;;;2.33;;
12356;SDS011;6243;51.244;6.774;2023-06-19T04:08:49;3.37;;;2.90;;
12356;SDS011;6243;51.244;6.774;2023-06-19T04:11:15;3.33;;;2.80;;
12356;SDS011;6243;51.244;6.774;2023-06-19T04:13:42;2.77;;;2.57;;
12356;SDS011;6243;51.244;6.774;2023-06-19T04:16:07;3.20;;;2.90;;
12356;SDS011;6243;51.244;6.774;2023-06-19T04:18:33;3.20;;;2.90;;
12356;SDS011;6243;51.244;6.774;2023-06-19T04:20:58;4.27;;;2.77;;
12356;SDS011;6243;51.244;6.774;2023-06-19T04:23:24;2.93;;;2.60;;
12356;SDS011;6243;51.244;6.774;2023-06-19T04:25:50;3.33;;;2.90;;
12356;SDS011;6243;51.244;6.774;2023-06-19T04:28:15;3.03;;;2.73;;
12356;SDS011;6243;51.244;6.774;2023-06-19T04:30:42;3.80;;;3.10;;
12356;SDS011;6243;51.244;6.774;2023-06-19T04:33:08;3.03;;;2.83;;
12356;SDS011;6243;51.244;6.774;2023-06-19T04:35:33;4.93;;;2.87;;
12356;SDS011;6243;51.244;6.774;2023-06-19T04:37:59;3.23;;;2.80;;
12356;SDS011;6243;51.244;6.774;2023-06-19T04:40:24;3.33;;;2.60;;
12356;SDS011;6243;51.244;6.774;2023-06-19T04:42:50;4.20;;;2.50;;
12356;SDS011;6243;51.244;6.774;2023-06-19T04:45:15;2.90;;;2.70;;
12356;SDS011;6243;51.244;6.774;2023-06-19T04:47:42;3.07;;;2.83;;
12356;SDS011;6243;51.244;6.774;2023-06-19T04:50:08;4.07;;;2.80;;
12356;SDS011;6243;51.244;6.774;2023-06-19T04:52:33;3.70;;;2.77;;
12356;SDS011;6243;51.244;6.774;2023-06-19T04:54:59;3.07;;;2.60;;
12356;SDS011;6243;51.244;6.774;2023-06-19T04:57:24;2.97;;;2.67;;
12356;SDS011;6243;51.244;6.774;2023-06-19T04:59:50;2.70;;;2.33;;
12356;SDS011;6243;51.244;6.774;2023-06-19T05:02:15;5.33;;;3.00;;
12356;SDS011;6243;51.244;6.774;2023-06-19T05:04:42;3.13;;;2.83;;
12356;SDS011;6243;51.244;6.774;2023-06-19T05:07:07;3.13;;;2.70;;
12356;SDS011;6243;51.244;6.774;2023-06-19T05:09:33;3.07;;;2.80;;
12356;SDS011;6243;51.244;6.774;2023-06-19T05:11:58;2.97;;;2.73;;
12356;SDS011;6243;51.244;6.774;2023-06-19T05:14:24;2.90;;;2.70;;
12356;SDS011;6243;51.244;6.774;2023-06-19T05:16:49;2.93;;;2.60;;
12356;SDS011;6243;51.244;6.774;2023-06-19T05:19:15;2.70;;;2.50;;
12356;SDS011;6243;51.244;6.774;2023-06-19T05:21:42;3.87;;;2.57;;
12356;SDS011;6243;51.244;6.774;2023-06-19T05:24:07;3.00;;;2.80;;
12356;SDS011;6243;51.244;6.774;2023-06-19T05:26:33;2.93;;;2.63;;
12356;SDS011;6243;51.244;6.774;2023-06-19T05:28:58;3.63;;;2.97;;
12356;SDS011;6243;51.244;6.774;2023-06-19T05:31:24;2.93;;;2.63;;
12356;SDS011;6243;51.244;6.774;2023-06-19T05:33:49;2.90;;;2.60;;
12356;SDS011;6243;51.244;6.774;2023-06-19T05:36:15;3.10;;;2.80;;
12356;SDS011;6243;51.244;6.774;2023-06-19T05:38:42;3.77;;;2.90;;
12356;SDS011;6243;51.244;6.774;2023-06-19T05:41:08;2.27;;;2.13;;
12356;SDS011;6243;51.244;6.774;2023-06-19T05:43:33;3.37;;;2.70;;
12356;SDS011;6243;51.244;6.774;2023-06-19T05:45:59;3.07;;;2.37;;
12356;SDS011;6243;51.244;6.774;2023-06-19T05:48:24;2.60;;;2.40;;
12356;SDS011;6243;51.244;6.774;2023-06-19T05:50:50;3.00;;;2.70;;
12356;SDS011;6243;51.244;6.774;2023-06-19T05:53:15;3.67;;;2.83;;
12356;SDS011;6243;51.244;6.774;2023-06-19T05:55:42;3.27;;;2.90;;
12356;SDS011;6243;51.244;6.774;2023-06-19T05:58:08;3.17;;;2.80;;
12356;SDS011;6243;51.244;6.774;2023-06-19T06:00:33;3.57;;;2.80;;
12356;SDS011;6243;51.244;6.774;2023-06-19T06:02:59;6.20;;;2.70;;
12356;SDS011;6243;51.244;6.774;2023-06-19T06:05:24;2.87;;;2.63;;
12356;SDS011;6243;51.244;6.774;2023-06-19T06:07:50;4.53;;;2.77;;
12356;SDS011;6243;51.244;6.774;2023-06-19T06:10:15;2.80;;;2.60;;
12356;SDS011;6243;51.244;6.774;2023-06-19T06:12:42;2.77;;;2.57;;
12356;SDS011;6243;51.244;6.774;2023-06-19T06:15:08;3.40;;;3.10;;
12356;SDS011;6243;51.244;6.774;2023-06-19T06:17:34;3.27;;;2.70;;
12356;SDS011;6243;51.244;6.774;2023-06-19T06:19:59;3.73;;;2.80;;
12356;SDS011;6243;51.244;6.774;2023-06-19T06:22:25;2.90;;;2.60;;
12356;SDS011;6243;51.244;6.774;2023-06-19T06:24:50;2.83;;;2.63;;
12356;SDS011;6243;51.244;6.774;2023-06-19T06:27:16;3.27;;;2.73;;
12356;SDS011;6243;51.244;6.774;2023-06-19T06:29:43;3.00;;;2.70;;
12356;SDS011;6243;51.244;6.774;2023-06-19T06:32:09;2.63;;;2.43;;
12356;SDS011;6243;51.244;6.774;2023-06-19T06:34:34;2.60;;;2.40;;
12356;SDS011;6243;51.244;6.774;2023-06-19T06:37:00;2.80;;;2.50;;
12356;SDS011;6243;51.244;6.774;2023-06-19T06:39:25;2.73;;;2.53;;
12356;SDS011;6243;51.244;6.774;2023-06-19T06:41:51;2.87;;;2.57;;
12356;SDS011;6243;51.244;6.774;2023-06-19T06:44:17;2.90;;;2.30;;
12356;SDS011;6243;51.244;6.774;2023-06-19T06:46:44;3.20;;;2.40;;
12356;SDS011;6243;51.244;6.774;2023-06-19T06:49:09;2.50;;;2.10;;
12356;SDS011;6243;51.244;6.774;2023-06-19T06:51:35;2.50;;;2.23;;
12356;SDS011;6243;51.244;6.774;2023-06-19T06:54:01;2.90;;;2.50;;
12356;SDS011;6243;51.244;6.774;2023-06-19T06:56:26;3.83;;;3.07;;
12356;SDS011;6243;51.244;6.774;2023-06-19T06:58:52;3.10;;;2.77;;
12356;SDS011;6243;51.244;6.774;2023-06-19T07:01:17;2.53;;;2.33;;
12356;SDS011;6243;51.244;6.774;2023-06-19T07:03:44;3.33;;;2.40;;
12356;SDS011;6243;51.244;6.774;2023-06-19T07:06:10;2.77;;;2.40;;
12356;SDS011;6243;51.244;6.774;2023-06-19T07:08:35;3.37;;;2.50;;
12356;SDS011;6243;51.244;6.774;2023-06-19T07:11:01;2.73;;;2.37;;
12356;SDS011;6243;51.244;6.774;2023-06-19T07:13:26;2.40;;;2.20;;
12356;SDS011;6243;51.244;6.774;2023-06-19T07:15:52;3.10;;;2.53;;
12356;SDS011;6243;51.244;6.774;2023-06-19T07:18:17;4.43;;;2.50;;
12356;SDS011;6243;51.244;6.774;2023-06-19T07:20:44;2.27;;;2.10;;
12356;SDS011;6243;51.244;6.774;2023-06-19T07:23:10;4.60;;;3.00;;
12356;SDS011;6243;51.244;6.774;2023-06-19T07:25:36;2.50;;;2.30;;
12356;SDS011;6243;51.244;6.774;2023-06-19T07:28:01;2.77;;;2.53;;
12356;SDS011;6243;51.244;6.774;2023-06-19T07:30:27;3.30;;;2.70;;
12356;SDS011;6243;51.244;6.774;2023-06-19T07:32:53;5.57;;;2.43;;
12356;SDS011;6243;51.244;6.774;2023-06-19T07:35:18;3.23;;;2.30;;
12356;SDS011;6243;51.244;6.774;2023-06-19T07:37:45;2.70;;;2.17;;
12356;SDS011;6243;51.244;6.774;2023-06-19T07:40:11;2.70;;;2.50;;
12356;SDS011;6243;51.244;6.774;2023-06-19T07:42:37;2.50;;;2.30;;
12356;SDS011;6243;51.244;6.774;2023-06-19T07:45:02;2.23;;;2.03;;
12356;SDS011;6243;51.244;6.774;2023-06-19T07:47:29;2.47;;;2.27;;
12356;SDS011;6243;51.244;6.774;2023-06-19T07:49:54;3.10;;;2.30;;
12356;SDS011;6243;51.244;6.774;2023-06-19T07:52:19;4.33;;;3.27;;
12356;SDS011;6243;51.244;6.774;2023-06-19T07:54:51;3.53;;;3.00;;
12356;SDS011;6243;51.244;6.774;2023-06-19T07:57:18;3.07;;;2.87;;
12356;SDS011;6243;51.244;6.774;2023-06-19T07:59:43;2.97;;;2.70;;
12356;SDS011;6243;51.244;6.774;2023-06-19T08:02:09;3.03;;;2.30;;
12356;SDS011;6243;51.244;6.774;2023-06-19T08:04:34;3.43;;;2.60;;
12356;SDS011;6243;51.244;6.774;2023-06-19T08:07:00;3.47;;;2.70;;
12356;SDS011;6243;51.244;6.774;2023-06-19T08:09:25;2.80;;;2.60;;
12356;SDS011;6243;51.244;6.774;2023-06-19T08:11:52;4.43;;;3.00;;
12356;SDS011;6243;51.244;6.774;2023-06-19T08:14:18;3.87;;;2.80;;
12356;SDS011;6243;51.244;6.774;2023-06-19T08:16:43;4.10;;;2.93;;
12356;SDS011;6243;51.244;6.774;2023-06-19T08:19:09;5.37;;;3.50;;
12356;SDS011;6243;51.244;6.774;2023-06-19T08:21:34;3.43;;;2.90;;
12356;SDS011;6243;51.244;6.774;2023-06-19T08:24:00;3.40;;;3.10;;
12356;SDS011;6243;51.244;6.774;2023-06-19T08:26:25;3.90;;;2.70;;
12356;SDS011;6243;51.244;6.774;2023-06-19T08:28:52;3.07;;;2.77;;
12356;SDS011;6243;51.244;6.774;2023-06-19T08:31:19;3.07;;;2.80;;
12356;SDS011;6243;51.244;6.774;2023-06-19T08:33:46;4.00;;;2.87;;
12356;SDS011;6243;51.244;6.774;2023-06-19T08:36:11;4.37;;;2.97;;
12356;SDS011;6243;51.244;6.774;2023-06-19T08:38:37;3.00;;;2.70;;
12356;SDS011;6243;51.244;6.774;2023-06-19T08:41:03;4.37;;;2.87;;
12356;SDS011;6243;51.244;6.774;2023-06-19T08:43:28;3.03;;;2.73;;
12356;SDS011;6243;51.244;6.774;2023-06-19T08:46:06;4.50;;;2.80;;
12356;SDS011;6243;51.244;6.774;2023-06-19T08:48:34;3.27;;;2.97;;
12356;SDS011;6243;51.244;6.774;2023-06-19T08:51:00;3.73;;;2.97;;
12356;SDS011;6243;51.244;6.774;2023-06-19T08:53:25;2.97;;;2.77;;
12356;SDS011;6243;51.244;6.774;2023-06-19T08:55:51;3.27;;;2.70;;
12356;SDS011;6243;51.244;6.774;2023-06-19T08:58:20;4.70;;;3.13;;
12356;SDS011;6243;51.244;6.774;2023-06-19T09:00:47;4.27;;;3.23;;
12356;SDS011;6243;51.244;6.774;2023-06-19T09:03:19;3.80;;;2.70;;
12356;SDS011;6243;51.244;6.774;2023-06-19T09:05:45;5.07;;;2.80;;
12356;SDS011;6243;51.244;6.774;2023-06-19T09:08:12;4.13;;;2.93;;
12356;SDS011;6243;51.244;6.774;2023-06-19T09:10:38;3.47;;;3.00;;
12356;SDS011;6243;51.244;6.774;2023-06-19T09:13:03;3.90;;;3.33;;
12356;SDS011;6243;51.244;6.774;2023-06-19T09:15:30;3.00;;;2.70;;
12356;SDS011;6243;51.244;6.774;2023-06-19T09:18:00;3.10;;;2.80;;
12356;SDS011;6243;51.244;6.774;2023-06-19T09:20:28;3.30;;;3.00;;
12356;SDS011;6243;51.244;6.774;2023-06-19T09:22:54;3.40;;;3.00;;
12356;SDS011;6243;51.244;6.774;2023-06-19T09:25:20;3.93;;;2.63;;
12356;SDS011;6243;51.244;6.774;2023-06-19T09:27:45;5.40;;;3.00;;
12356;SDS011;6243;51.244;6.774;2023-06-19T09:30:14;4.23;;;3.10;;
12356;SDS011;6243;51.244;6.774;2023-06-19T09:32:40;4.07;;;3.10;;
12356;SDS011;6243;51.244;6.774;2023-06-19T09:35:06;3.53;;;3.07;;
12356;SDS011;6243;51.244;6.774;2023-06-19T09:37:33;3.63;;;3.33;;
12356;SDS011;6243;51.244;6.774;2023-06-19T09:40:00;4.70;;;3.30;;
12356;SDS011;6243;51.244;6.774;2023-06-19T09:42:27;5.03;;;3.30;;
12356;SDS011;6243;51.244;6.774;2023-06-19T09:44:58;4.13;;;3.50;;
12356;SDS011;6243;51.244;6.774;2023-06-19T09:47:27;5.00;;;3.77;;
12356;SDS011;6243;51.244;6.774;2023-06-19T09:49:56;6.20;;;2.93;;
12356;SDS011;6243;51.244;6.774;2023-06-19T09:52:22;3.97;;;3.20;;
12356;SDS011;6243;51.244;6.774;2023-06-19T09:54:50;3.90;;;3.50;;
12356;SDS011;6243;51.244;6.774;2023-06-19T09:57:16;3.80;;;3.50;;
12356;SDS011;6243;51.244;6.774;2023-06-19T09:59:42;4.13;;;3.50;;
12356;SDS011;6243;51.244;6.774;2023-06-19T10:02:08;4.07;;;3.60;;
12356;SDS011;6243;51.244;6.774;2023-06-19T10:04:41;3.67;;;3.37;;
12356;SDS011;6243;51.244;6.774;2023-06-19T10:07:14;3.77;;;3.47;;
12356;SDS011;6243;51.244;6.774;2023-06-19T10:09:40;4.00;;;3.13;;
12356;SDS011;6243;51.244;6.774;2023-06-19T10:12:12;4.37;;;3.40;;
12356;SDS011;6243;51.244;6.774;2023-06-19T10:14:44;7.73;;;4.30;;
12356;SDS011;6243;51.244;6.774;2023-06-19T10:17:11;3.40;;;3.10;;
12356;SDS011;6243;51.244;6.774;2023-06-19T10:19:37;4.83;;;3.40;;
12356;SDS011;6243;51.244;6.774;2023-06-19T10:22:02;3.80;;;3.43;;
12356;SDS011;6243;51.244;6.774;2023-06-19T10:24:28;4.77;;;3.30;;
12356;SDS011;6243;51.244;6.774;2023-06-19T10:26:58;4.37;;;3.70;;
12356;SDS011;6243;51.244;6.774;2023-06-19T10:29:26;4.40;;;3.63;;
12356;SDS011;6243;51.244;6.774;2023-06-19T10:31:52;3.57;;;3.27;;
12356;SDS011;6243;51.244;6.774;2023-06-19T10:34:17;4.00;;;3.60;;
12356;SDS011;6243;51.244;6.774;2023-06-19T10:36:43;3.70;;;3.20;;
12356;SDS011;6243;51.244;6.774;2023-06-19T10:39:09;3.20;;;3.00;;
12356;SDS011;6243;51.244;6.774;2023-06-19T10:41:34;4.27;;;3.43;;
12356;SDS011;6243;51.244;6.774;2023-06-19T10:44:00;4.10;;;3.50;;
12356;SDS011;6243;51.244;6.774;2023-06-19T10:46:29;5.00;;;3.73;;
12356;SDS011;6243;51.244;6.774;2023-06-19T10:48:57;4.40;;;3.67;;
12356;SDS011;6243;51.244;6.774;2023-06-19T10:51:23;4.10;;;3.70;;
12356;SDS011;6243;51.244;6.774;2023-06-19T10:53:49;4.60;;;3.87;;
12356;SDS011;6243;51.244;6.774;2023-06-19T10:56:14;4.23;;;3.73;;
12356;SDS011;6243;51.244;6.774;2023-06-19T10:58:40;3.83;;;3.40;;
12356;SDS011;6243;51.244;6.774;2023-06-19T11:01:05;5.23;;;3.73;;
12356;SDS011;6243;51.244;6.774;2023-06-19T11:03:32;3.70;;;3.23;;
12356;SDS011;6243;51.244;6.774;2023-06-19T11:05:58;5.67;;;4.37;;
12356;SDS011;6243;51.244;6.774;2023-06-19T11:08:24;4.17;;;3.77;;
12356;SDS011;6243;51.244;6.774;2023-06-19T11:10:49;4.73;;;3.43;;
12356;SDS011;6243;51.244;6.774;2023-06-19T11:13:16;5.33;;;3.50;;
12356;SDS011;6243;51.244;6.774;2023-06-19T11:15:42;4.03;;;3.60;;
12356;SDS011;6243;51.244;6.774;2023-06-19T11:18:08;4.53;;;3.60;;
12356;SDS011;6243;51.244;6.774;2023-06-19T11:20:44;3.93;;;3.53;;
12356;SDS011;6243;51.244;6.774;2023-06-19T11:23:10;3.93;;;3.63;;
12356;SDS011;6243;51.244;6.774;2023-06-19T11:25:36;4.57;;;3.87;;
12356;SDS011;6243;51.244;6.774;2023-06-19T11:28:02;4.07;;;3.67;;
12356;SDS011;6243;51.244;6.774;2023-06-19T11:30:30;4.17;;;3.63;;
12356;SDS011;6243;51.244;6.774;2023-06-19T11:32:57;3.93;;;3.63;;
12356;SDS011;6243;51.244;6.774;2023-06-19T11:35:22;4.30;;;3.60;;
12356;SDS011;6243;51.244;6.774;2023-06-19T11:37:49;4.40;;;3.80;;
12356;SDS011;6243;51.244;6.774;2023-06-19T11:40:16;3.90;;;3.53;;
12356;SDS011;6243;51.244;6.774;2023-06-19T11:42:45;4.57;;;3.70;;
12356;SDS011;6243;51.244;6.774;2023-06-19T11:45:12;4.47;;;3.77;;
12356;SDS011;6243;51.244;6.774;2023-06-19T11:47:38;4.73;;;4.33;;
12356;SDS011;6243;51.244;6.774;2023-06-19T11:50:04;5.33;;;3.70;;
12356;SDS011;6243;51.244;6.774;2023-06-19T11:52:31;5.10;;;3.73;;
12356;SDS011;6243;51.244;6.774;2023-06-19T11:54:58;5.10;;;4.03;;
12356;SDS011;6243;51.244;6.774;2023-06-19T11:57:24;4.10;;;3.70;;
12356;SDS011;6243;51.244;6.774;2023-06-19T11:59:51;4.30;;;3.90;;
12356;SDS011;6243;51.244;6.774;2023-06-19T12:02:17;4.20;;;3.87;;
12356;SDS011;6243;51.244;6.774;2023-06-19T12:04:42;4.83;;;4.43;;
12356;SDS011;6243;51.244;6.774;2023-06-19T12:07:08;4.27;;;3.70;;
12356;SDS011;6243;51.244;6.774;2023-06-19T12:09:33;4.73;;;4.33;;
12356;SDS011;6243;51.244;6.774;2023-06-19T12:12:00;4.60;;;4.20;;
12356;SDS011;6243;51.244;6.774;2023-06-19T12:14:26;6.07;;;3.50;;
12356;SDS011;6243;51.244;6.774;2023-06-19T12:16:52;5.73;;;4.03;;
12356;SDS011;6243;51.244;6.774;2023-06-19T12:19:17;4.63;;;4.23;;
12356;SDS011;6243;51.244;6.774;2023-06-19T12:21:43;5.23;;;4.70;;
12356;SDS011;6243;51.244;6.774;2023-06-19T12:24:08;4.80;;;4.40;;
12356;SDS011;6243;51.244;6.774;2023-06-19T12:26:34;6.53;;;4.63;;
12356;SDS011;6243;51.244;6.774;2023-06-19T12:29:01;8.53;;;5.00;;
12356;SDS011;6243;51.244;6.774;2023-06-19T12:31:27;5.33;;;4.23;;
12356;SDS011;6243;51.244;6.774;2023-06-19T12:33:52;4.63;;;4.07;;
12356;SDS011;6243;51.244;6.774;2023-06-19T12:36:17;4.90;;;4.50;;
12356;SDS011;6243;51.244;6.774;2023-06-19T12:38:43;4.20;;;3.80;;
12356;SDS011;6243;51.244;6.774;2023-06-19T12:41:08;4.40;;;3.93;;
12356;SDS011;6243;51.244;6.774;2023-06-19T12:43:34;4.10;;;3.70;;
12356;SDS011;6243;51.244;6.774;2023-06-19T12:46:01;5.93;;;4.33;;
12356;SDS011;6243;51.244;6.774;2023-06-19T12:48:27;4.10;;;3.70;;
12356;SDS011;6243;51.244;6.774;2023-06-19T12:50:53;4.03;;;3.63;;
12356;SDS011;6243;51.244;6.774;2023-06-19T12:53:18;4.43;;;4.03;;
12356;SDS011;6243;51.244;6.774;2023-06-19T12:55:44;4.90;;;4.50;;
12356;SDS011;6243;51.244;6.774;2023-06-19T12:58:09;4.13;;;3.77;;
12356;SDS011;6243;51.244;6.774;2023-06-19T13:00:35;6.60;;;4.30;;
12356;SDS011;6243;51.244;6.774;2023-06-19T13:03:01;4.63;;;4.23;;
12356;SDS011;6243;51.244;6.774;2023-06-19T13:05:27;4.57;;;4.13;;
12356;SDS011;6243;51.244;6.774;2023-06-19T13:07:53;4.53;;;4.13;;
12356;SDS011;6243;51.244;6.774;2023-06-19T13:10:18;4.30;;;3.90;;
12356;SDS011;6243;51.244;6.774;2023-06-19T13:12:44;4.60;;;4.20;;
12356;SDS011;6243;51.244;6.774;2023-06-19T13:15:09;5.77;;;3.77;;
12356;SDS011;6243;51.244;6.774;2023-06-19T13:17:35;4.47;;;3.80;;
12356;SDS011;6243;51.244;6.774;2023-06-19T13:20:02;4.97;;;3.97;;
12356;SDS011;6243;51.244;6.774;2023-06-19T13:22:28;4.27;;;3.87;;
12356;SDS011;6243;51.244;6.774;2023-06-19T13:24:54;3.87;;;3.57;;
12356;SDS011;6243;51.244;6.774;2023-06-19T13:27:19;4.80;;;4.40;;
12356;SDS011;6243;51.244;6.774;2023-06-19T13:29:45;4.43;;;3.67;;
12356;SDS011;6243;51.244;6.774;2023-06-19T13:32:10;4.93;;;4.10;;
12356;SDS011;6243;51.244;6.774;2023-06-19T13:34:36;4.13;;;3.83;;
12356;SDS011;6243;51.244;6.774;2023-06-19T13:37:03;5.47;;;4.23;;
12356;SDS011;6243;51.244;6.774;2023-06-19T13:39:29;4.20;;;3.87;;
12356;SDS011;6243;51.244;6.774;2023-06-19T13:41:54;5.77;;;4.40;;
12356;SDS011;6243;51.244;6.774;2023-06-19T13:44:19;4.70;;;4.20;;
12356;SDS011;6243;51.244;6.774;2023-06-19T13:46:45;5.23;;;4.00;;
12356;SDS011;6243;51.244;6.774;2023-06-19T13:49:10;4.27;;;3.60;;
12356;SDS011;6243;51.244;6.774;2023-06-19T13:51:36;4.17;;;3.77;;
12356;SDS011;6243;51.244;6.774;2023-06-19T13:54:03;4.80;;;3.83;;
12356;SDS011;6243;51.244;6.774;2023-06-19T13:56:29;4.17;;;3.73;;
12356;SDS011;6243;51.244;6.774;2023-06-19T13:58:54;4.03;;;3.53;;
12356;SDS011;6243;51.244;6.774;2023-06-19T14:01:20;5.07;;;4.10;;
12356;SDS011;6243;51.244;6.774;2023-06-19T14:03:45;4.43;;;4.03;;
12356;SDS011;6243;51.244;6.774;2023-06-19T14:06:11;3.97;;;3.60;;
12356;SDS011;6243;51.244;6.774;2023-06-19T14:08:36;4.53;;;4.10;;
12356;SDS011;6243;51.244;6.774;2023-06-19T14:11:03;4.43;;;3.90;;
12356;SDS011;6243;51.244;6.774;2023-06-19T14:13:29;5.47;;;3.87;;
12356;SDS011;6243;51.244;6.774;2023-06-19T14:15:54;3.60;;;3.30;;
12356;SDS011;6243;51.244;6.774;2023-06-19T14:18:20;4.50;;;3.63;;
12356;SDS011;6243;51.244;6.774;2023-06-19T14:20:46;3.57;;;3.27;;
12356;SDS011;6243;51.244;6.774;2023-06-19T14:23:11;4.80;;;3.50;;
12356;SDS011;6243;51.244;6.774;2023-06-19T14:25:37;4.73;;;3.90;;
12356;SDS011;6243;51.244;6.774;2023-06-19T14:28:04;4.13;;;3.83;;
12356;SDS011;6243;51.244;6.774;2023-06-19T14:30:29;3.90;;;3.40;;
12356;SDS011;6243;51.244;6.774;2023-06-19T14:32:55;4.10;;;3.70;;
12356;SDS011;6243;51.244;6.774;2023-06-19T14:35:20;4.67;;;3.80;;
12356;SDS011;6243;51.244;6.774;2023-06-19T14:37:46;3.70;;;3.40;;
12356;SDS011;6243;51.244;6.774;2023-06-19T14:40:11;5.13;;;3.77;;
12356;SDS011;6243;51.244;6.774;2023-06-19T14:42:37;4.63;;;4.23;;
12356;SDS011;6243;51.244;6.774;2023-06-19T14:45:04;3.97;;;3.50;;
12356;SDS011;6243;51.244;6.774;2023-06-19T14:47:30;3.90;;;3.60;;
12356;SDS011;6243;51.244;6.774;2023-06-19T14:49:55;4.40;;;3.03;;
12356;SDS011;6243;51.244;6.774;2023-06-19T14:52:21;4.00;;;3.37;;